sensor_id;sensor_type;location;lat;lon;timestamp;pressure;altitude;pressure_sealevel;temperature;humidity
4012;BME280;2020;48.682;9.024;2023-05-25T00:01:13;96786.00;;;9.19;61.39
4012;BME280;2020;48.682;9.024;2023-05-25T00:03:40;96785.19;;;9.19;61.55
4012;BME280;2020;48.682;9.024;2023-05-25T00:06:06;96788.75;;;9.18;61.89
4012;BME280;2020;48.682;9.024;2023-05-25T00:08:31;96789.00;;;9.25;61.22
4012;BME280;2020;48.682;9.024;2023-05-25T00:10:57;96788.19;;;9.24;61.09
4012;BME280;2020;48.682;9.024;2023-05-25T00:13:22;96785.59;;;9.24;60.92
4012;BME280;2020;48.682;9.024;2023-05-25T00:15:48;96789.84;;;9.25;60.94
4012;BME280;2020;48.682;9.024;2023-05-25T00:18:13;96790.41;;;9.19;61.82
4012;BME280;2020;48.682;9.024;2023-05-25T00:20:38;96785.19;;;9.19;62.23
4012;BME280;2020;48.682;9.024;2023-05-25T00:23:03;96783.84;;;9.15;61.69
4012;BME280;2020;48.682;9.024;2023-05-25T00:25:29;96787.41;;;9.14;62.50
4012;BME280;2020;48.682;9.024;2023-05-25T00:27:54;96795.06;;;9.05;63.58
4012;BME280;2020;48.682;9.024;2023-05-25T00:30:20;96791.22;;;9.10;62.33
4012;BME280;2020;48.682;9.024;2023-05-25T00:32:45;96785.78;;;8.93;62.55
4012;BME280;2020;48.682;9.024;2023-05-25T00:35:11;96793.13;;;8.98;62.55
4012;BME280;2020;48.682;9.024;2023-05-25T00:37:37;96785.22;;;8.99;63.06
4012;BME280;2020;48.682;9.024;2023-05-25T00:40:02;96789.88;;;9.05;62.29
4012;BME280;2020;48.682;9.024;2023-05-25T00:42:28;96786.31;;;8.97;62.89
4012;BME280;2020;48.682;9.024;2023-05-25T00:44:54;96784.69;;;8.86;63.03
4012;BME280;2020;48.682;9.024;2023-05-25T00:47:19;96780.69;;;8.91;63.31
4012;BME280;2020;48.682;9.024;2023-05-25T00:49:45;96775.38;;;8.93;63.56
4012;BME280;2020;48.682;9.024;2023-05-25T00:52:13;96777.03;;;8.94;63.27
4012;BME280;2020;48.682;9.024;2023-05-25T00:54:39;96774.03;;;8.89;63.85
4012;BME280;2020;48.682;9.024;2023-05-25T00:57:06;96774.56;;;8.83;64.01
4012;BME280;2020;48.682;9.024;2023-05-25T00:59:38;96774.28;;;8.86;64.12
4012;BME280;2020;48.682;9.024;2023-05-25T01:02:10;96768.81;;;8.89;64.02
4012;BME280;2020;48.682;9.024;2023-05-25T01:04:40;96774.03;;;8.89;64.42
4012;BME280;2020;48.682;9.024;2023-05-25T01:07:10;96775.09;;;8.96;63.70
4012;BME280;2020;48.682;9.024;2023-05-25T01:09:38;96772.38;;;8.88;64.18
4012;BME280;2020;48.682;9.024;2023-05-25T01:12:06;96774.28;;;8.86;64.79
4012;BME280;2020;48.682;9.024;2023-05-25T01:14:33;96769.91;;;8.86;64.02
4012;BME280;2020;48.682;9.024;2023-05-25T01:16:59;96769.38;;;8.83;65.21
4012;BME280;2020;48.682;9.024;2023-05-25T01:19:24;96771.84;;;8.74;64.18
4012;BME280;2020;48.682;9.024;2023-05-25T01:22:03;96776.06;;;8.75;64.50
4012;BME280;2020;48.682;9.024;2023-05-25T01:24:48;96771.00;;;8.64;65.25
4012;BME280;2020;48.682;9.024;2023-05-25T01:27:35;96771.25;;;8.61;64.96
4012;BME280;2020;48.682;9.024;2023-05-25T01:30:05;96775.06;;;8.57;64.84
4012;BME280;2020;48.682;9.024;2023-05-25T01:32:34;96766.34;;;8.58;65.27
4012;BME280;2020;48.682;9.024;2023-05-25T01:35:02;96757.84;;;8.46;65.41
4012;BME280;2020;48.682;9.024;2023-05-25T01:37:28;96763.34;;;8.53;65.24
4012;BME280;2020;48.682;9.024;2023-05-25T01:39:55;96758.41;;;8.49;65.10
4012;BME280;2020;48.682;9.024;2023-05-25T01:42:20;96757.88;;;8.56;64.94
4012;BME280;2020;48.682;9.024;2023-05-25T01:44:46;96767.97;;;8.59;64.32
4012;BME280;2020;48.682;9.024;2023-05-25T01:47:23;96766.34;;;8.58;64.60
4012;BME280;2020;48.682;9.024;2023-05-25T01:50:02;96772.66;;;8.65;64.35
4012;BME280;2020;48.682;9.024;2023-05-25T01:52:35;96778.34;;;8.59;64.52
4012;BME280;2020;48.682;9.024;2023-05-25T01:55:06;96769.38;;;8.63;65.13
4012;BME280;2020;48.682;9.024;2023-05-25T01:57:35;96775.94;;;8.67;64.46
4012;BME280;2020;48.682;9.024;2023-05-25T02:00:02;96774.56;;;8.63;64.30
4012;BME280;2020;48.682;9.024;2023-05-25T02:02:28;96773.16;;;8.59;65.22
4012;BME280;2020;48.682;9.024;2023-05-25T02:04:54;96774.81;;;8.60;65.31
4012;BME280;2020;48.682;9.024;2023-05-25T02:07:21;96774.56;;;8.63;65.43
4012;BME280;2020;48.682;9.024;2023-05-25T02:09:46;96770.34;;;8.62;65.46
4012;BME280;2020;48.682;9.024;2023-05-25T02:12:11;96768.53;;;8.53;66.59
4012;BME280;2020;48.682;9.024;2023-05-25T02:14:37;96760.06;;;8.51;66.41
4012;BME280;2020;48.682;9.024;2023-05-25T02:17:02;96760.28;;;8.47;66.73
4012;BME280;2020;48.682;9.024;2023-05-25T02:19:28;96757.56;;;8.39;66.94
4012;BME280;2020;48.682;9.024;2023-05-25T02:21:53;96750.19;;;8.44;66.49
4012;BME280;2020;48.682;9.024;2023-05-25T02:24:19;96748.97;;;8.39;66.87
4012;BME280;2020;48.682;9.024;2023-05-25T02:26:44;96754.53;;;8.34;66.84
4012;BME280;2020;48.682;9.024;2023-05-25T02:29:09;96761.63;;;8.32;67.62
4012;BME280;2020;48.682;9.024;2023-05-25T02:31:35;96758.09;;;8.23;67.57
4012;BME280;2020;48.682;9.024;2023-05-25T02:34:01;96758.34;;;8.30;67.77
4012;BME280;2020;48.682;9.024;2023-05-25T02:36:27;96753.16;;;8.30;67.51
4012;BME280;2020;48.682;9.024;2023-05-25T02:38:52;96757.81;;;8.36;67.75
4012;BME280;2020;48.682;9.024;2023-05-25T02:41:20;96752.63;;;8.36;68.00
4012;BME280;2020;48.682;9.024;2023-05-25T02:43:46;96751.25;;;8.32;67.37
4012;BME280;2020;48.682;9.024;2023-05-25T02:46:11;96752.34;;;8.19;68.83
4012;BME280;2020;48.682;9.024;2023-05-25T02:48:37;96762.97;;;8.16;68.36
4012;BME280;2020;48.682;9.024;2023-05-25T02:51:02;96758.63;;;8.17;68.92
4012;BME280;2020;48.682;9.024;2023-05-25T02:53:28;96750.69;;;8.18;68.77
4012;BME280;2020;48.682;9.024;2023-05-25T02:55:53;96752.59;;;8.16;68.78
4012;BME280;2020;48.682;9.024;2023-05-25T02:58:18;96756.69;;;8.09;68.70
4012;BME280;2020;48.682;9.024;2023-05-25T03:00:44;96762.66;;;8.00;68.22
4012;BME280;2020;48.682;9.024;2023-05-25T03:03:10;96763.59;;;7.99;68.63
4012;BME280;2020;48.682;9.024;2023-05-25T03:05:36;96762.66;;;8.00;69.23
4012;BME280;2020;48.682;9.024;2023-05-25T03:08:02;96761.28;;;7.96;68.72
4012;BME280;2020;48.682;9.024;2023-05-25T03:10:28;96755.56;;;8.02;69.52
4012;BME280;2020;48.682;9.024;2023-05-25T03:12:53;96758.44;;;7.99;68.86
4012;BME280;2020;48.682;9.024;2023-05-25T03:15:18;96756.66;;;7.99;69.56
4012;BME280;2020;48.682;9.024;2023-05-25T03:17:43;96756.34;;;7.93;69.79
4012;BME280;2020;48.682;9.024;2023-05-25T03:20:09;96764.25;;;7.91;69.84
4012;BME280;2020;48.682;9.024;2023-05-25T03:22:35;96763.97;;;7.84;69.91
4012;BME280;2020;48.682;9.024;2023-05-25T03:25:02;96767.25;;;7.86;70.67
4012;BME280;2020;48.682;9.024;2023-05-25T03:27:27;96773.25;;;7.87;70.43
4012;BME280;2020;48.682;9.024;2023-05-25T03:29:52;96779.53;;;7.84;70.10
4012;BME280;2020;48.682;9.024;2023-05-25T03:32:18;96778.94;;;7.81;70.57
4012;BME280;2020;48.682;9.024;2023-05-25T03:34:43;96774.84;;;7.78;71.53
4012;BME280;2020;48.682;9.024;2023-05-25T03:37:09;96781.09;;;7.66;72.08
4012;BME280;2020;48.682;9.024;2023-05-25T03:39:34;96777.66;;;7.65;72.21
4012;BME280;2020;48.682;9.024;2023-05-25T03:42:00;96775.91;;;7.66;71.50
4012;BME280;2020;48.682;9.024;2023-05-25T03:44:25;96778.91;;;7.71;71.70
4012;BME280;2020;48.682;9.024;2023-05-25T03:46:50;96772.63;;;7.64;72.55
4012;BME280;2020;48.682;9.024;2023-05-25T03:49:16;96776.69;;;7.56;72.59
4012;BME280;2020;48.682;9.024;2023-05-25T03:51:41;96777.22;;;7.60;72.44
4012;BME280;2020;48.682;9.024;2023-05-25T03:54:07;96768.66;;;7.59;72.05
4012;BME280;2020;48.682;9.024;2023-05-25T03:56:32;96774.78;;;7.58;73.61
4012;BME280;2020;48.682;9.024;2023-05-25T03:58:58;96773.41;;;7.54;72.42
4012;BME280;2020;48.682;9.024;2023-05-25T04:01:24;96783.75;;;7.54;72.80
4012;BME280;2020;48.682;9.024;2023-05-25T04:03:51;96782.13;;;7.53;73.16
4012;BME280;2020;48.682;9.024;2023-05-25T04:06:17;96783.50;;;7.57;73.46
4012;BME280;2020;48.682;9.024;2023-05-25T04:08:43;96785.13;;;7.58;73.45
4012;BME280;2020;48.682;9.024;2023-05-25T04:11:09;96791.69;;;7.63;72.64
4012;BME280;2020;48.682;9.024;2023-05-25T04:13:35;96788.41;;;7.60;72.97
4012;BME280;2020;48.682;9.024;2023-05-25T04:16:01;96783.75;;;7.54;73.17
4012;BME280;2020;48.682;9.024;2023-05-25T04:18:26;96787.28;;;7.53;73.71
4012;BME280;2020;48.682;9.024;2023-05-25T04:20:51;96792.72;;;7.50;73.66
4012;BME280;2020;48.682;9.024;2023-05-25T04:23:16;96794.13;;;7.54;74.05
4012;BME280;2020;48.682;9.024;2023-05-25T04:25:43;96791.97;;;7.59;72.99
4012;BME280;2020;48.682;9.024;2023-05-25T04:28:09;96803.72;;;7.64;72.53
4012;BME280;2020;48.682;9.024;2023-05-25T04:30:36;96801.28;;;7.72;72.07
4012;BME280;2020;48.682;9.024;2023-05-25T04:33:02;96787.38;;;7.73;72.22
4012;BME280;2020;48.682;9.024;2023-05-25T04:35:27;96781.94;;;7.76;72.37
4012;BME280;2020;48.682;9.024;2023-05-25T04:37:53;96783.06;;;7.83;71.91
4012;BME280;2020;48.682;9.024;2023-05-25T04:40:18;96790.16;;;7.81;72.50
4012;BME280;2020;48.682;9.024;2023-05-25T04:42:45;96792.66;;;7.93;72.62
4012;BME280;2020;48.682;9.024;2023-05-25T04:45:12;96796.63;;;7.97;71.78
4012;BME280;2020;48.682;9.024;2023-05-25T04:47:41;96794.72;;;7.99;71.69
4012;BME280;2020;48.682;9.024;2023-05-25T04:50:08;96795.13;;;8.04;70.30
4012;BME280;2020;48.682;9.024;2023-05-25T04:52:34;96789.25;;;8.02;71.72
4012;BME280;2020;48.682;9.024;2023-05-25T04:55:00;96790.38;;;8.09;71.73
4012;BME280;2020;48.682;9.024;2023-05-25T04:57:27;96798.47;;;8.16;72.16
4012;BME280;2020;48.682;9.024;2023-05-25T04:59:52;96792.38;;;7.96;72.77
4012;BME280;2020;48.682;9.024;2023-05-25T05:02:18;96786.00;;;8.00;72.41
4012;BME280;2020;48.682;9.024;2023-05-25T05:04:43;96787.38;;;8.04;72.73
4012;BME280;2020;48.682;9.024;2023-05-25T05:07:08;96797.63;;;8.15;72.43
4012;BME280;2020;48.682;9.024;2023-05-25T05:09:34;96794.78;;;8.18;72.85
4012;BME280;2020;48.682;9.024;2023-05-25T05:11:59;96801.22;;;8.24;72.17
4012;BME280;2020;48.682;9.024;2023-05-25T05:14:26;96803.13;;;8.32;71.95
4012;BME280;2020;48.682;9.024;2023-05-25T05:16:51;96796.72;;;8.36;71.74
4012;BME280;2020;48.682;9.024;2023-05-25T05:19:16;96803.16;;;8.42;71.19
4012;BME280;2020;48.682;9.024;2023-05-25T05:21:42;96813.81;;;8.48;71.56
4012;BME280;2020;48.682;9.024;2023-05-25T05:24:07;96816.84;;;8.54;70.90
4012;BME280;2020;48.682;9.024;2023-05-25T05:26:32;96825.31;;;8.56;71.20
4012;BME280;2020;48.682;9.024;2023-05-25T05:28:58;96826.16;;;8.56;71.42
4012;BME280;2020;48.682;9.024;2023-05-25T05:31:23;96835.72;;;8.56;71.68
4012;BME280;2020;48.682;9.024;2023-05-25T05:33:49;96837.34;;;8.57;71.99
4012;BME280;2020;48.682;9.024;2023-05-25T05:36:14;96834.13;;;8.74;71.08
4012;BME280;2020;48.682;9.024;2023-05-25T05:38:41;96842.31;;;8.80;71.78
4012;BME280;2020;48.682;9.024;2023-05-25T05:41:06;96845.59;;;8.91;70.59
4012;BME280;2020;48.682;9.024;2023-05-25T05:43:37;96841.94;;;9.14;70.10
4012;BME280;2020;48.682;9.024;2023-05-25T05:46:03;96847.66;;;9.27;69.97
4012;BME280;2020;48.682;9.024;2023-05-25T05:48:29;96853.25;;;9.32;69.59
4012;BME280;2020;48.682;9.024;2023-05-25T05:50:54;96850.50;;;9.44;69.83
4012;BME280;2020;48.682;9.024;2023-05-25T05:53:19;96858.44;;;9.52;68.87
4012;BME280;2020;48.682;9.024;2023-05-25T05:55:45;96860.34;;;9.50;69.59
4012;BME280;2020;48.682;9.024;2023-05-25T05:58:10;96862.00;;;9.51;69.40
4012;BME280;2020;48.682;9.024;2023-05-25T06:00:35;96857.91;;;9.48;69.02
4012;BME280;2020;48.682;9.024;2023-05-25T06:03:00;96865.56;;;9.50;69.75
4012;BME280;2020;48.682;9.024;2023-05-25T06:05:26;96862.22;;;9.68;69.25
4012;BME280;2020;48.682;9.024;2023-05-25T06:07:51;96866.88;;;9.74;69.50
4012;BME280;2020;48.682;9.024;2023-05-25T06:10:16;96866.03;;;9.83;69.14
4012;BME280;2020;48.682;9.024;2023-05-25T06:12:41;96871.50;;;9.90;68.17
4012;BME280;2020;48.682;9.024;2023-05-25T06:15:07;96870.91;;;10.06;68.96
4012;BME280;2020;48.682;9.024;2023-05-25T06:17:32;96867.88;;;10.10;68.39
4012;BME280;2020;48.682;9.024;2023-05-25T06:19:58;96866.22;;;10.19;68.51
4012;BME280;2020;48.682;9.024;2023-05-25T06:22:23;96866.41;;;10.36;68.25
4012;BME280;2020;48.682;9.024;2023-05-25T06:24:52;96863.13;;;10.34;68.01
4012;BME280;2020;48.682;9.024;2023-05-25T06:27:17;96871.25;;;10.59;68.08
4012;BME280;2020;48.682;9.024;2023-05-25T06:29:42;96862.38;;;10.79;67.44
4012;BME280;2020;48.682;9.024;2023-05-25T06:32:07;96877.41;;;10.86;66.48
4012;BME280;2020;48.682;9.024;2023-05-25T06:34:35;96870.03;;;10.81;66.92
4012;BME280;2020;48.682;9.024;2023-05-25T06:37:00;96873.84;;;10.87;65.83
4012;BME280;2020;48.682;9.024;2023-05-25T06:39:26;96878.59;;;11.09;66.05
4012;BME280;2020;48.682;9.024;2023-05-25T06:41:51;96874.00;;;11.21;65.27
4012;BME280;2020;48.682;9.024;2023-05-25T06:44:16;96871.16;;;11.15;66.21
4012;BME280;2020;48.682;9.024;2023-05-25T06:46:42;96865.59;;;11.46;66.31
4012;BME280;2020;48.682;9.024;2023-05-25T06:49:08;96860.91;;;11.76;64.96
4012;BME280;2020;48.682;9.024;2023-05-25T06:51:33;96872.41;;;11.91;64.01
4012;BME280;2020;48.682;9.024;2023-05-25T06:53:58;96874.66;;;11.86;63.13
4012;BME280;2020;48.682;9.024;2023-05-25T06:56:24;96872.00;;;11.78;63.66
4012;BME280;2020;48.682;9.024;2023-05-25T06:58:50;96886.44;;;11.72;64.64
4012;BME280;2020;48.682;9.024;2023-05-25T07:01:15;96877.09;;;11.88;65.61
4012;BME280;2020;48.682;9.024;2023-05-25T07:03:41;96887.75;;;11.94;65.53
4012;BME280;2020;48.682;9.024;2023-05-25T07:06:07;96886.78;;;11.95;65.14
4012;BME280;2020;48.682;9.024;2023-05-25T07:08:33;96888.19;;;12.08;65.01
4012;BME280;2020;48.682;9.024;2023-05-25T07:10:58;96885.91;;;11.87;64.20
4012;BME280;2020;48.682;9.024;2023-05-25T07:13:23;96877.63;;;11.91;65.48
4012;BME280;2020;48.682;9.024;2023-05-25T07:15:49;96885.09;;;11.86;65.25
4012;BME280;2020;48.682;9.024;2023-05-25T07:18:14;96891.63;;;11.90;65.18
4012;BME280;2020;48.682;9.024;2023-05-25T07:20:40;96881.72;;;11.94;65.94
4012;BME280;2020;48.682;9.024;2023-05-25T07:23:09;96900.44;;;11.89;66.37
4012;BME280;2020;48.682;9.024;2023-05-25T07:25:35;96900.94;;;11.66;66.20
4012;BME280;2020;48.682;9.024;2023-05-25T07:28:01;96907.34;;;11.54;66.56
4012;BME280;2020;48.682;9.024;2023-05-25T07:30:27;96909.34;;;11.60;66.64
4012;BME280;2020;48.682;9.024;2023-05-25T07:32:52;96909.66;;;11.57;66.26
4012;BME280;2020;48.682;9.024;2023-05-25T07:35:17;96913.31;;;11.64;65.99
4012;BME280;2020;48.682;9.024;2023-05-25T07:37:42;96913.59;;;11.61;66.63
4012;BME280;2020;48.682;9.024;2023-05-25T07:40:08;96909.13;;;11.72;66.55
4012;BME280;2020;48.682;9.024;2023-05-25T07:42:33;96915.00;;;11.74;66.96
4012;BME280;2020;48.682;9.024;2023-05-25T07:45:00;96917.19;;;11.60;66.10
4012;BME280;2020;48.682;9.024;2023-05-25T07:47:26;96918.16;;;11.59;66.02
4012;BME280;2020;48.682;9.024;2023-05-25T07:49:51;96920.16;;;11.65;66.45
4012;BME280;2020;48.682;9.024;2023-05-25T07:52:16;96920.63;;;11.87;67.85
4012;BME280;2020;48.682;9.024;2023-05-25T07:54:43;96921.97;;;12.09;66.19
4012;BME280;2020;48.682;9.024;2023-05-25T07:57:09;96920.69;;;12.48;65.52
4012;BME280;2020;48.682;9.024;2023-05-25T07:59:34;96917.94;;;12.23;64.33
4012;BME280;2020;48.682;9.024;2023-05-25T08:01:59;96920.06;;;12.54;65.14
4012;BME280;2020;48.682;9.024;2023-05-25T08:04:24;96915.88;;;12.62;64.70
4012;BME280;2020;48.682;9.024;2023-05-25T08:06:50;96908.28;;;12.50;64.15
4012;BME280;2020;48.682;9.024;2023-05-25T08:09:15;96906.47;;;12.85;64.07
4012;BME280;2020;48.682;9.024;2023-05-25T08:11:40;96909.81;;;13.29;63.50
4012;BME280;2020;48.682;9.024;2023-05-25T08:14:06;96912.16;;;13.49;62.17
4012;BME280;2020;48.682;9.024;2023-05-25T08:16:31;96920.66;;;13.67;63.15
4012;BME280;2020;48.682;9.024;2023-05-25T08:18:56;96914.47;;;13.93;61.19
4012;BME280;2020;48.682;9.024;2023-05-25T08:21:22;96924.56;;;14.13;60.27
4012;BME280;2020;48.682;9.024;2023-05-25T08:23:47;96919.56;;;14.43;60.92
4012;BME280;2020;48.682;9.024;2023-05-25T08:26:14;96912.81;;;13.75;60.43
4012;BME280;2020;48.682;9.024;2023-05-25T08:28:39;96919.63;;;14.26;60.86
4012;BME280;2020;48.682;9.024;2023-05-25T08:31:05;96912.97;;;14.55;60.98
4012;BME280;2020;48.682;9.024;2023-05-25T08:33:30;96914.03;;;14.86;60.18
4012;BME280;2020;48.682;9.024;2023-05-25T08:35:56;96915.69;;;15.10;59.47
4012;BME280;2020;48.682;9.024;2023-05-25T08:38:23;96923.50;;;15.18;58.48
4012;BME280;2020;48.682;9.024;2023-05-25T08:41:01;96921.44;;;15.37;57.86
4012;BME280;2020;48.682;9.024;2023-05-25T08:43:27;96924.94;;;15.53;58.91
4012;BME280;2020;48.682;9.024;2023-05-25T08:45:54;96927.16;;;15.64;59.32
4012;BME280;2020;48.682;9.024;2023-05-25T08:48:23;96934.00;;;15.88;58.26
4012;BME280;2020;48.682;9.024;2023-05-25T08:50:51;96923.13;;;16.15;56.73
4012;BME280;2020;48.682;9.024;2023-05-25T08:53:17;96923.31;;;16.13;56.96
4012;BME280;2020;48.682;9.024;2023-05-25T08:55:46;96928.16;;;16.01;57.57
4012;BME280;2020;48.682;9.024;2023-05-25T08:58:18;96928.00;;;16.18;57.58
4012;BME280;2020;48.682;9.024;2023-05-25T09:00:54;96916.97;;;16.37;56.15
4012;BME280;2020;48.682;9.024;2023-05-25T09:03:20;96915.31;;;16.06;56.59
4012;BME280;2020;48.682;9.024;2023-05-25T09:05:48;96914.59;;;16.43;56.52
4012;BME280;2020;48.682;9.024;2023-05-25T09:08:16;96913.16;;;16.55;55.94
4012;BME280;2020;48.682;9.024;2023-05-25T09:10:41;96919.88;;;16.73;55.66
4012;BME280;2020;48.682;9.024;2023-05-25T09:13:07;96925.66;;;16.83;56.22
4012;BME280;2020;48.682;9.024;2023-05-25T09:15:33;96919.09;;;17.09;54.86
4012;BME280;2020;48.682;9.024;2023-05-25T09:17:59;96923.84;;;16.69;54.51
4012;BME280;2020;48.682;9.024;2023-05-25T09:20:25;96925.91;;;16.73;55.03
4012;BME280;2020;48.682;9.024;2023-05-25T09:22:58;96925.63;;;17.13;53.51
4012;BME280;2020;48.682;9.024;2023-05-25T09:25:25;96923.50;;;17.23;54.06
4012;BME280;2020;48.682;9.024;2023-05-25T09:27:52;96934.03;;;17.45;53.87
4012;BME280;2020;48.682;9.024;2023-05-25T09:30:17;96929.38;;;17.47;53.35
4012;BME280;2020;48.682;9.024;2023-05-25T09:32:42;96919.09;;;17.96;53.08
4012;BME280;2020;48.682;9.024;2023-05-25T09:35:10;96937.91;;;17.71;53.95
4012;BME280;2020;48.682;9.024;2023-05-25T09:37:36;96925.53;;;17.06;54.21
4012;BME280;2020;48.682;9.024;2023-05-25T09:40:02;96935.63;;;17.03;53.97
4012;BME280;2020;48.682;9.024;2023-05-25T09:42:28;96928.78;;;17.08;54.40
4012;BME280;2020;48.682;9.024;2023-05-25T09:44:53;96940.53;;;16.76;54.92
4012;BME280;2020;48.682;9.024;2023-05-25T09:47:18;96937.78;;;16.84;54.60
4012;BME280;2020;48.682;9.024;2023-05-25T09:49:45;96929.63;;;17.09;56.10
4012;BME280;2020;48.682;9.024;2023-05-25T09:52:14;96930.22;;;17.26;53.66
4012;BME280;2020;48.682;9.024;2023-05-25T09:54:43;96942.78;;;17.74;54.56
4012;BME280;2020;48.682;9.024;2023-05-25T09:57:09;96948.13;;;18.31;53.27
4012;BME280;2020;48.682;9.024;2023-05-25T09:59:34;96936.38;;;18.34;52.64
4012;BME280;2020;48.682;9.024;2023-05-25T10:02:00;96944.66;;;17.80;52.37
4012;BME280;2020;48.682;9.024;2023-05-25T10:04:26;96942.28;;;18.07;53.53
4012;BME280;2020;48.682;9.024;2023-05-25T10:06:52;96943.31;;;18.13;51.92
4012;BME280;2020;48.682;9.024;2023-05-25T10:09:18;96941.88;;;17.89;52.39
4012;BME280;2020;48.682;9.024;2023-05-25T10:11:44;96942.28;;;18.07;53.10
4012;BME280;2020;48.682;9.024;2023-05-25T10:14:13;96939.41;;;18.02;52.40
4012;BME280;2020;48.682;9.024;2023-05-25T10:16:39;96945.03;;;17.99;53.37
4012;BME280;2020;48.682;9.024;2023-05-25T10:19:12;96961.22;;;17.96;52.78
4012;BME280;2020;48.682;9.024;2023-05-25T10:21:44;96950.75;;;18.66;52.59
4012;BME280;2020;48.682;9.024;2023-05-25T10:24:24;96951.91;;;18.57;53.08
4012;BME280;2020;48.682;9.024;2023-05-25T10:26:53;96938.28;;;18.89;51.02
4012;BME280;2020;48.682;9.024;2023-05-25T10:29:23;96935.16;;;19.20;50.68
4012;BME280;2020;48.682;9.024;2023-05-25T10:31:49;96936.78;;;19.21;50.98
4012;BME280;2020;48.682;9.024;2023-05-25T10:34:15;96948.78;;;18.75;51.15
4012;BME280;2020;48.682;9.024;2023-05-25T10:36:41;96942.94;;;18.45;50.72
4012;BME280;2020;48.682;9.024;2023-05-25T10:39:07;96933.69;;;18.62;51.23
4012;BME280;2020;48.682;9.024;2023-05-25T10:41:33;96945.41;;;18.95;52.17
4012;BME280;2020;48.682;9.024;2023-05-25T10:43:59;96940.50;;;19.34;50.77
4012;BME280;2020;48.682;9.024;2023-05-25T10:46:24;96937.28;;;19.65;50.53
4012;BME280;2020;48.682;9.024;2023-05-25T10:48:50;96939.78;;;20.00;48.25
4012;BME280;2020;48.682;9.024;2023-05-25T10:51:35;96941.34;;;19.81;48.17
4012;BME280;2020;48.682;9.024;2023-05-25T10:54:01;96947.09;;;19.98;48.33
4012;BME280;2020;48.682;9.024;2023-05-25T10:56:27;96946.03;;;20.20;49.57
4012;BME280;2020;48.682;9.024;2023-05-25T10:58:52;96947.88;;;19.99;47.04
4012;BME280;2020;48.682;9.024;2023-05-25T11:01:17;96942.97;;;19.69;48.83
4012;BME280;2020;48.682;9.024;2023-05-25T11:06:09;96940.91;;;19.44;49.43
4012;BME280;2020;48.682;9.024;2023-05-25T11:08:53;96937.28;;;19.72;48.72
4012;BME280;2020;48.682;9.024;2023-05-25T11:11:20;96944.63;;;19.83;49.54
4012;BME280;2020;48.682;9.024;2023-05-25T11:13:46;96951.97;;;19.95;48.66
4012;BME280;2020;48.682;9.024;2023-05-25T11:16:14;96942.34;;;19.73;49.19
4012;BME280;2020;48.682;9.024;2023-05-25T11:18:54;96943.56;;;19.57;49.33
4012;BME280;2020;48.682;9.024;2023-05-25T11:23:58;96934.28;;;18.99;51.31
4012;BME280;2020;48.682;9.024;2023-05-25T11:26:28;96947.22;;;18.94;50.66
4012;BME280;2020;48.682;9.024;2023-05-25T11:28:54;96943.78;;;18.94;50.71
4012;BME280;2020;48.682;9.024;2023-05-25T11:31:26;96933.28;;;19.00;51.62
4012;BME280;2020;48.682;9.024;2023-05-25T11:33:55;96932.31;;;19.15;50.27
4012;BME280;2020;48.682;9.024;2023-05-25T11:36:22;96936.22;;;19.33;51.21
4012;BME280;2020;48.682;9.024;2023-05-25T11:38:47;96939.59;;;19.13;50.94
4012;BME280;2020;48.682;9.024;2023-05-25T11:41:31;96932.63;;;18.92;50.48
4012;BME280;2020;48.682;9.024;2023-05-25T11:44:02;96937.53;;;19.02;50.50
4012;BME280;2020;48.682;9.024;2023-05-25T11:46:28;96941.94;;;18.88;51.46
4012;BME280;2020;48.682;9.024;2023-05-25T11:48:58;96949.00;;;18.80;52.89
4012;BME280;2020;48.682;9.024;2023-05-25T11:51:27;96943.22;;;18.98;51.88
4012;BME280;2020;48.682;9.024;2023-05-25T11:53:53;96941.72;;;18.82;52.35
4012;BME280;2020;48.682;9.024;2023-05-25T11:56:19;96948.47;;;18.98;51.78
4012;BME280;2020;48.682;9.024;2023-05-25T11:58:48;96939.59;;;19.06;51.60
4012;BME280;2020;48.682;9.024;2023-05-25T12:01:17;96938.22;;;19.24;51.59
4012;BME280;2020;48.682;9.024;2023-05-25T12:03:47;96945.78;;;19.34;51.38
4012;BME280;2020;48.682;9.024;2023-05-25T12:06:31;96944.19;;;19.60;50.55
4012;BME280;2020;48.682;9.024;2023-05-25T12:08:59;96940.94;;;19.57;49.60
4012;BME280;2020;48.682;9.024;2023-05-25T12:11:35;96936.84;;;19.55;50.74
4012;BME280;2020;48.682;9.024;2023-05-25T12:14:06;96936.88;;;19.75;50.32
4012;BME280;2020;48.682;9.024;2023-05-25T12:16:35;96935.06;;;19.69;49.94
4012;BME280;2020;48.682;9.024;2023-05-25T12:19:05;96931.81;;;19.80;50.47
4012;BME280;2020;48.682;9.024;2023-05-25T12:21:31;96933.22;;;19.76;50.61
4012;BME280;2020;48.682;9.024;2023-05-25T12:23:57;96937.28;;;19.72;49.36
4012;BME280;2020;48.682;9.024;2023-05-25T12:26:23;96926.72;;;19.58;50.71
4012;BME280;2020;48.682;9.024;2023-05-25T12:29:01;96928.34;;;19.73;49.84
4012;BME280;2020;48.682;9.024;2023-05-25T12:31:28;96940.94;;;19.57;49.53
4012;BME280;2020;48.682;9.024;2023-05-25T12:34:17;96932.81;;;19.66;49.81
4012;BME280;2020;48.682;9.024;2023-05-25T12:36:47;96938.50;;;19.69;49.82
4012;BME280;2020;48.682;9.024;2023-05-25T12:39:14;96936.47;;;19.71;49.49
4012;BME280;2020;48.682;9.024;2023-05-25T12:41:47;96939.53;;;19.75;50.92
4012;BME280;2020;48.682;9.024;2023-05-25T12:44:17;96932.00;;;19.85;50.52
4012;BME280;2020;48.682;9.024;2023-05-25T12:46:42;96932.44;;;20.29;50.03
4012;BME280;2020;48.682;9.024;2023-05-25T12:49:25;96933.19;;;20.43;49.37
4012;BME280;2020;48.682;9.024;2023-05-25T12:51:51;96931.94;;;20.53;48.93
4012;BME280;2020;48.682;9.024;2023-05-25T12:57:00;96934.84;;;20.31;48.88
4012;BME280;2020;48.682;9.024;2023-05-25T12:59:30;96941.91;;;20.51;47.66
4012;BME280;2020;48.682;9.024;2023-05-25T13:01:56;96925.03;;;20.65;48.82
4012;BME280;2020;48.682;9.024;2023-05-25T13:04:21;96924.06;;;21.05;48.11
4012;BME280;2020;48.682;9.024;2023-05-25T13:06:47;96937.81;;;20.82;47.10
4012;BME280;2020;48.682;9.024;2023-05-25T13:09:13;96929.13;;;20.48;47.68
4012;BME280;2020;48.682;9.024;2023-05-25T13:11:38;96927.91;;;20.50;47.50
4012;BME280;2020;48.682;9.024;2023-05-25T13:14:03;96932.81;;;20.33;47.71
4012;BME280;2020;48.682;9.024;2023-05-25T13:16:31;96933.25;;;20.23;48.78
4012;BME280;2020;48.682;9.024;2023-05-25T13:18:57;96927.53;;;20.33;48.43
4012;BME280;2020;48.682;9.024;2023-05-25T13:21:22;96929.19;;;20.27;47.90
4012;BME280;2020;48.682;9.024;2023-05-25T13:23:47;96923.03;;;20.40;47.21
4012;BME280;2020;48.682;9.024;2023-05-25T13:26:12;96935.00;;;20.63;47.44
4012;BME280;2020;48.682;9.024;2023-05-25T13:28:38;96926.22;;;20.83;46.44
4012;BME280;2020;48.682;9.024;2023-05-25T13:31:03;96917.66;;;20.81;46.83
4012;BME280;2020;48.682;9.024;2023-05-25T13:33:28;96912.91;;;20.96;46.33